createdAt,value
2023-05-06T00:00:29.138Z,954.2064209
2023-05-06T00:01:30.644Z,954.2087402
2023-05-06T00:02:32.418Z,954.1967163
2023-05-06T00:03:33.755Z,954.15802
2023-05-06T00:04:34.678Z,954.1604004
2023-05-06T00:05:35.650Z,954.1228027
2023-05-06T00:06:37.158Z,954.1112671
2023-05-06T00:07:38.704Z,954.0900879
2023-05-06T00:08:40.066Z,954.0857544
2023-05-06T00:09:41.129Z,954.0720215
2023-05-06T00:10:42.644Z,954.0645142
2023-05-06T00:11:44.119Z,954.0562744
2023-05-06T00:12:45.774Z,954.0154419
2023-05-06T00:13:46.842Z,953.9916382
2023-05-06T00:14:48.403Z,954.0081177
2023-05-06T00:15:48.963Z,953.9974976
2023-05-06T00:16:50.331Z,953.9710693
2023-05-06T00:17:51.631Z,953.9818726
2023-05-06T00:18:52.581Z,954.0359497
2023-05-06T00:19:53.545Z,954.0211792
2023-05-06T00:21:25.873Z,954.0392456
2023-05-06T00:22:27.349Z,954.0523682
2023-05-06T00:23:28.435Z,954.0237427
2023-05-06T00:24:29.337Z,954.0021973
2023-05-06T00:25:30.333Z,954.0335083
2023-05-06T00:26:31.872Z,954.010498
2023-05-06T00:27:33.355Z,954.0078735
2023-05-06T00:28:34.996Z,954.0332642
2023-05-06T00:29:35.520Z,953.9899292
2023-05-06T00:30:36.618Z,954.0013428
2023-05-06T00:31:38.212Z,954.0064087
2023-05-06T00:32:39.737Z,953.9915771
2023-05-06T00:33:41.157Z,954.024231
2023-05-06T00:34:42.583Z,953.9783325
2023-05-06T00:35:43.859Z,953.977478
2023-05-06T00:36:45.130Z,953.9768677
2023-05-06T00:37:46.600Z,953.963623
2023-05-06T00:38:47.708Z,953.9883423
2023-05-06T00:39:48.591Z,953.9793091
2023-05-06T00:40:49.632Z,953.9522705
2023-05-06T00:41:51.170Z,953.9612427
2023-05-06T00:42:52.775Z,953.9520264
2023-05-06T00:44:25.367Z,953.9291382
2023-05-06T00:45:26.854Z,953.9291992
2023-05-06T00:46:28.438Z,953.9489136
2023-05-06T00:47:29.864Z,953.8987427
2023-05-06T00:48:31.132Z,953.935791
2023-05-06T00:49:32.685Z,953.9332886
2023-05-06T00:50:34.234Z,953.9840698
2023-05-06T00:51:35.682Z,953.9529419
2023-05-06T00:52:37.160Z,953.9609375
2023-05-06T00:53:38.697Z,953.9682617
2023-05-06T00:54:40.182Z,953.9625854
2023-05-06T00:55:41.619Z,953.9626465
2023-05-06T00:56:42.866Z,953.9813843
2023-05-06T00:57:44.152Z,954.020752
2023-05-06T00:58:45.663Z,953.9897461
2023-05-06T00:59:47.186Z,954.0323486
2023-05-06T01:00:48.650Z,953.9920044
2023-05-06T01:01:50.128Z,953.9921265
2023-05-06T01:02:51.487Z,953.9812622
2023-05-06T01:03:52.840Z,953.9846802
2023-05-06T01:05:25.411Z,953.9699707
2023-05-06T01:06:26.383Z,953.9723511
2023-05-06T01:07:27.889Z,953.9681396
2023-05-06T01:08:29.379Z,953.9747925
2023-05-06T01:09:30.858Z,953.97229
2023-05-06T01:10:31.941Z,953.946167
2023-05-06T01:11:32.373Z,953.9612427
2023-05-06T01:12:34.041Z,953.9573364
2023-05-06T01:13:35.136Z,953.9318848
2023-05-06T01:14:36.638Z,953.9516602
2023-05-06T01:15:38.090Z,953.9533081
2023-05-06T01:16:39.346Z,953.9631348
2023-05-06T01:17:40.780Z,953.9246216
2023-05-06T01:18:42.157Z,953.9367065
2023-05-06T01:19:43.866Z,953.9024048
2023-05-06T01:20:45.244Z,953.9269409
2023-05-06T01:21:46.594Z,953.9243774
2023-05-06T01:22:47.687Z,953.9204712
2023-05-06T01:23:49.207Z,953.8965454
2023-05-06T01:24:50.603Z,953.9726563
2023-05-06T01:25:51.642Z,953.9523315
2023-05-06T01:26:52.879Z,954.0062256
2023-05-06T01:27:54.367Z,954.0159302
2023-05-06T01:29:26.216Z,954.0308838
2023-05-06T01:30:27.654Z,954.0159302
2023-05-06T01:31:29.203Z,954.0076294
2023-05-06T01:32:30.162Z,954.0454712
2023-05-06T01:33:31.765Z,954.0177612
2023-05-06T01:34:33.137Z,954.0758057
2023-05-06T01:35:34.611Z,954.0546265
2023-05-06T01:36:35.942Z,954.0332642
2023-05-06T01:37:37.426Z,954.0584106
2023-05-06T01:38:38.186Z,954.0806885
2023-05-06T01:39:39.622Z,954.078125
2023-05-06T01:40:40.577Z,954.0733032
2023-05-06T01:41:41.647Z,954.0354614
2023-05-06T01:42:42.716Z,954.0828857
2023-05-06T01:43:44.126Z,954.0345459
2023-05-06T01:44:45.641Z,954.0623169
2023-05-06T01:45:47.214Z,954.0133057
2023-05-06T01:46:48.729Z,954.0018921
2023-05-06T01:47:49.671Z,953.9897461
2023-05-06T01:48:51.178Z,953.9806519
2023-05-06T01:49:52.673Z,954.0471191
2023-05-06T01:51:25.366Z,954.052002
2023-05-06T01:52:26.943Z,954.0437622
2023-05-06T01:53:28.407Z,954.0650024
2023-05-06T01:54:29.896Z,954.0829468
2023-05-06T01:55:31.386Z,954.0617065
2023-05-06T01:56:32.892Z,954.0904541
2023-05-06T01:57:34.252Z,954.019043
2023-05-06T01:58:35.777Z,953.9568481
2023-05-06T01:59:37.224Z,954.0491943
2023-05-06T02:00:38.714Z,954.0200806
2023-05-06T02:01:40.186Z,954.0305176
2023-05-06T02:02:41.770Z,954.0265503
2023-05-06T02:03:43.338Z,954.078064
2023-05-06T02:04:44.645Z,954.0518799
2023-05-06T02:05:46.187Z,954.0888062
2023-05-06T02:06:47.615Z,954.1010742
2023-05-06T02:07:48.670Z,954.1049805
2023-05-06T02:08:50.223Z,954.0509644
2023-05-06T02:09:52.410Z,954.0714111
2023-05-06T02:10:54.395Z,954.0812378
2023-05-06T02:12:26.866Z,954.1322632
2023-05-06T02:13:28.417Z,954.1109619
2023-05-06T02:14:29.928Z,954.1688843
2023-05-06T02:15:31.237Z,954.1863403
2023-05-06T02:16:32.778Z,954.2468872
2023-05-06T02:17:33.643Z,954.3434448
2023-05-06T02:18:34.873Z,954.4106445
2023-05-06T02:19:36.422Z,954.5309448
2023-05-06T02:20:37.870Z,954.6257324
2023-05-06T02:21:39.399Z,954.727356
2023-05-06T02:22:40.623Z,954.8508301
2023-05-06T02:23:42.034Z,954.9123535
2023-05-06T02:24:43.388Z,954.9734497
2023-05-06T02:25:44.105Z,954.8562622
2023-05-06T02:26:45.122Z,954.6824951
2023-05-06T02:27:46.675Z,954.4434204
2023-05-06T02:28:48.227Z,954.1813354
2023-05-06T02:29:49.636Z,954.0476685
2023-05-06T02:30:50.731Z,953.9494019
2023-05-06T02:31:52.290Z,953.8869019
2023-05-06T02:33:24.389Z,953.9057617
2023-05-06T02:34:25.870Z,953.9367065
2023-05-06T02:35:27.384Z,953.9613037
2023-05-06T02:36:28.900Z,953.9979858
2023-05-06T02:37:29.354Z,953.9858398
2023-05-06T02:38:30.624Z,953.993103
2023-05-06T02:39:31.908Z,953.9678955
2023-05-06T02:40:33.149Z,953.9749756
2023-05-06T02:41:34.730Z,953.9400024
2023-05-06T02:42:36.125Z,953.9187622
2023-05-06T02:43:37.176Z,953.9309082
2023-05-06T02:44:38.706Z,953.9210815
2023-05-06T02:45:40.235Z,953.9454956
2023-05-06T02:46:41.745Z,953.9480591
2023-05-06T02:47:43.149Z,953.8897095
2023-05-06T02:48:44.719Z,953.9176636
2023-05-06T02:49:46.203Z,953.8922119
2023-05-06T02:50:47.659Z,953.8823242
2023-05-06T02:51:49.130Z,953.8186035
2023-05-06T02:52:50.661Z,953.8554688
2023-05-06T02:53:52.427Z,953.8587646
2023-05-06T02:55:24.166Z,953.8956299
2023-05-06T02:56:25.736Z,953.9487305
2023-05-06T02:57:26.894Z,953.947998
2023-05-06T02:58:27.471Z,953.9726563
2023-05-06T02:59:28.666Z,953.9946899
2023-05-06T03:00:30.168Z,953.956665
2023-05-06T03:01:31.706Z,953.9525146
2023-05-06T03:02:33.212Z,953.9484863
2023-05-06T03:03:34.489Z,953.9040527
2023-05-06T03:04:36.002Z,953.8823242
2023-05-06T03:05:36.511Z,953.8986206
2023-05-06T03:06:37.638Z,953.9371338
2023-05-06T03:07:38.784Z,953.9370117
2023-05-06T03:08:39.918Z,953.9101563
2023-05-06T03:09:41.824Z,953.9486694
2023-05-06T03:10:42.962Z,953.9519653
2023-05-06T03:11:44.368Z,953.9901733
2023-05-06T03:12:45.495Z,953.9689331
2023-05-06T03:13:45.973Z,953.9279785
2023-05-06T03:14:47.247Z,953.8641968
2023-05-06T03:15:48.642Z,953.8675537
2023-05-06T03:16:50.150Z,953.8485718
2023-05-06T03:17:51.321Z,953.833252
2023-05-06T03:19:23.899Z,953.8217163
2023-05-06T03:20:25.399Z,953.8110352
2023-05-06T03:21:26.934Z,953.8060913
2023-05-06T03:22:27.891Z,953.800293
2023-05-06T03:23:29.499Z,953.7879639
2023-05-06T03:24:30.906Z,953.798584
2023-05-06T03:25:32.380Z,953.7775269
2023-05-06T03:26:32.883Z,953.7709351
2023-05-06T03:27:34.124Z,953.7806396
2023-05-06T03:28:35.221Z,953.7946777
2023-05-06T03:29:36.652Z,953.7740479
2023-05-06T03:30:37.205Z,953.7642212
2023-05-06T03:31:37.748Z,953.7102051
2023-05-06T03:32:39.210Z,953.697998
2023-05-06T03:33:40.716Z,953.685791
2023-05-06T03:34:41.194Z,953.7028198
2023-05-06T03:35:42.637Z,953.6896973
2023-05-06T03:36:44.119Z,953.684082
2023-05-06T03:37:45.126Z,953.7341309
2023-05-06T03:38:46.405Z,953.7039185
2023-05-06T03:39:47.661Z,953.6990356
2023-05-06T03:40:49.170Z,953.71698
2023-05-06T03:41:50.914Z,953.7463989
2023-05-06T03:43:23.395Z,953.8095093
2023-05-06T03:44:24.899Z,953.8029785
2023-05-06T03:45:26.373Z,953.8799438
2023-05-06T03:46:26.973Z,953.9404907
2023-05-06T03:47:28.122Z,953.9993896
2023-05-06T03:48:29.210Z,954.032959
2023-05-06T03:49:30.665Z,954.0662231
2023-05-06T03:50:32.184Z,954.0803833
2023-05-06T03:51:33.522Z,954.0793457
2023-05-06T03:52:34.861Z,954.1271362
2023-05-06T03:53:36.214Z,954.0982666
2023-05-06T03:54:37.440Z,954.088623
2023-05-06T03:55:38.914Z,954.0296631
2023-05-06T03:56:39.437Z,953.9893799
2023-05-06T03:57:40.636Z,953.9558105
2023-05-06T03:58:41.670Z,953.9509277
2023-05-06T03:59:42.909Z,953.8879395
2023-05-06T04:00:44.435Z,953.8198242
2023-05-06T04:01:45.088Z,953.7553101
2023-05-06T04:02:46.156Z,953.703125
2023-05-06T04:03:47.764Z,953.6716919
2023-05-06T04:04:49.129Z,953.6619263
2023-05-06T04:05:50.231Z,953.6564331
2023-05-06T04:06:52.136Z,953.6727295
2023-05-06T04:08:23.476Z,953.6456299
2023-05-06T04:09:24.732Z,953.6538086
2023-05-06T04:10:26.305Z,953.6773682
2023-05-06T04:11:29.153Z,953.7045288
2023-05-06T04:12:28.429Z,953.7068481
2023-05-06T04:13:29.904Z,953.7454834
2023-05-06T04:14:31.199Z,953.7918701
2023-05-06T04:15:32.667Z,953.7885742
2023-05-06T04:16:34.231Z,953.8181152
2023-05-06T04:17:35.659Z,953.8126831
2023-05-06T04:18:36.686Z,953.7854614
2023-05-06T04:19:38.230Z,953.7757568
2023-05-06T04:20:39.394Z,953.7698364
2023-05-06T04:21:40.932Z,953.8051758
2023-05-06T04:22:41.586Z,953.757019
2023-05-06T04:23:42.676Z,953.7619019
2023-05-06T04:24:44.213Z,953.725769
2023-05-06T04:25:45.416Z,953.7182617
2023-05-06T04:26:45.977Z,953.7126465
2023-05-06T04:27:47.151Z,953.6997681
2023-05-06T04:28:48.185Z,953.7495117
2023-05-06T04:29:49.741Z,953.7807617
2023-05-06T04:30:51.214Z,953.826416
2023-05-06T04:32:23.916Z,953.7740479
2023-05-06T04:33:25.515Z,953.8295288
2023-05-06T04:34:26.142Z,953.7732544
2023-05-06T04:35:27.732Z,953.7886963
2023-05-06T04:36:29.229Z,953.7164917
2023-05-06T04:37:30.469Z,953.7474976
2023-05-06T04:38:32.271Z,953.7468872
2023-05-06T04:39:33.434Z,953.7509155
2023-05-06T04:40:34.813Z,953.7647705
2023-05-06T04:41:36.463Z,953.769043
2023-05-06T04:42:37.906Z,953.7687378
2023-05-06T04:43:38.431Z,953.7435913
2023-05-06T04:44:39.702Z,953.7376709
2023-05-06T04:45:41.248Z,953.7510986
2023-05-06T04:46:42.440Z,953.7427979
2023-05-06T04:47:43.073Z,953.7770386
2023-05-06T04:48:44.200Z,953.7884521
2023-05-06T04:49:45.768Z,953.8122559
2023-05-06T04:50:46.971Z,953.7966919
2023-05-06T04:51:48.405Z,953.7839355
2023-05-06T04:52:48.886Z,953.8043823
2023-05-06T04:53:50.225Z,953.7527466
2023-05-06T04:54:51.486Z,953.7706299
2023-05-06T04:56:23.201Z,953.7806396
2023-05-06T04:57:24.424Z,953.7848511
2023-05-06T04:58:25.977Z,953.815918
2023-05-06T04:59:26.554Z,953.8273315
2023-05-06T05:00:27.699Z,953.8190918
2023-05-06T05:01:29.325Z,953.8156738
2023-05-06T05:02:30.484Z,953.845459
2023-05-06T05:03:31.602Z,953.8297119
2023-05-06T05:04:32.068Z,953.8225098
2023-05-06T05:05:33.246Z,953.8256226
2023-05-06T05:06:34.687Z,953.8184204
2023-05-06T05:07:35.946Z,953.8068848
2023-05-06T05:08:37.151Z,953.8186035
2023-05-06T05:09:38.672Z,953.789856
2023-05-06T05:10:40.283Z,953.8323364
2023-05-06T05:11:41.409Z,953.8103027
2023-05-06T05:12:43.004Z,953.8322754
2023-05-06T05:13:43.843Z,953.8309326
2023-05-06T05:14:45.215Z,953.8406372
2023-05-06T05:15:46.744Z,953.8504639
2023-05-06T05:16:48.071Z,953.8579102
2023-05-06T05:17:49.412Z,953.8398438
2023-05-06T05:18:50.725Z,953.8200684
2023-05-06T05:20:22.925Z,953.8161011
2023-05-06T05:21:23.462Z,953.8462524
2023-05-06T05:22:24.671Z,953.8588867
2023-05-06T05:23:26.252Z,953.8817139
2023-05-06T05:24:28.415Z,953.8898315
2023-05-06T05:25:28.968Z,953.8809204
2023-05-06T05:26:30.274Z,953.9004517
2023-05-06T05:27:31.152Z,953.9121704
2023-05-06T05:28:32.185Z,953.9447632
2023-05-06T05:29:33.667Z,953.935791
2023-05-06T05:30:35.194Z,953.9202881
2023-05-06T05:31:36.909Z,953.9195557
2023-05-06T05:32:37.953Z,953.9391479
2023-05-06T05:33:39.500Z,953.9262695
2023-05-06T05:34:40.059Z,953.9327393
2023-05-06T05:35:41.121Z,953.9676514
2023-05-06T05:36:42.175Z,953.9849854
2023-05-06T05:37:43.422Z,954.0031738
2023-05-06T05:38:44.025Z,953.9818726
2023-05-06T05:39:44.551Z,954.0047607
2023-05-06T05:40:45.023Z,954.0220337
2023-05-06T05:41:46.472Z,954.0065918
2023-05-06T05:42:47.894Z,953.9859619
2023-05-06T05:43:48.891Z,953.9868774
2023-05-06T05:44:49.368Z,954.0392456
2023-05-06T05:46:21.984Z,954.0598145
2023-05-06T05:47:23.043Z,954.0423584
2023-05-06T05:48:23.949Z,954.0244751
2023-05-06T05:49:25.410Z,954.0269775
2023-05-06T05:50:26.014Z,954.0515137
2023-05-06T05:51:27.123Z,954.041748
2023-05-06T05:52:28.202Z,954.0154419
2023-05-06T05:53:29.301Z,954.039978
2023-05-06T05:54:30.409Z,954.0786133
2023-05-06T05:55:30.923Z,954.1046753
2023-05-06T05:56:32.286Z,954.1367188
2023-05-06T05:57:33.681Z,954.1652222
2023-05-06T05:58:35.204Z,954.1983032
2023-05-06T05:59:36.699Z,954.1702881
2023-05-06T06:00:38.172Z,954.1359253
2023-05-06T06:01:39.836Z,954.1581421
2023-05-06T06:02:41.275Z,954.1187744
2023-05-06T06:03:42.248Z,954.1464844
2023-05-06T06:04:43.449Z,954.1353149
2023-05-06T06:05:43.883Z,954.131958
2023-05-06T06:06:45.163Z,954.0910645
2023-05-06T06:07:46.363Z,954.0730591
2023-05-06T06:08:47.640Z,954.0321045
2023-05-06T06:09:48.642Z,954.0559082
2023-05-06T06:10:49.671Z,954.0679932
2023-05-06T06:12:21.410Z,954.0828857
2023-05-06T06:13:22.793Z,954.0812378
2023-05-06T06:14:23.792Z,954.0516357
2023-05-06T06:15:24.933Z,954.0731201
2023-05-06T06:16:26.463Z,954.0493774
2023-05-06T06:17:27.402Z,954.1003418
2023-05-06T06:18:28.780Z,954.0853271
2023-05-06T06:19:30.245Z,954.0887451
2023-05-06T06:20:31.683Z,954.1255493
2023-05-06T06:21:33.214Z,954.1101685
2023-05-06T06:22:34.678Z,954.0421143
2023-05-06T06:23:35.692Z,954.0618896
2023-05-06T06:24:37.298Z,954.0783081
2023-05-06T06:25:39.182Z,954.039856
2023-05-06T06:26:40.666Z,954.0685425
2023-05-06T06:27:41.982Z,954.0905762
2023-05-06T06:28:43.497Z,954.1175537
2023-05-06T06:29:44.722Z,954.0882568
2023-05-06T06:30:45.905Z,954.057373
2023-05-06T06:31:46.963Z,954.0145264
2023-05-06T06:32:47.982Z,953.9957886
2023-05-06T06:33:48.652Z,953.9539185
2023-05-06T06:34:49.640Z,953.947876
2023-05-06T06:36:21.757Z,953.9321899
2023-05-06T06:37:23.245Z,953.977478
2023-05-06T06:38:24.422Z,954.0010986
2023-05-06T06:39:25.456Z,954.0109863
2023-05-06T06:40:26.978Z,953.9890747
2023-05-06T06:41:28.364Z,953.9823608
2023-05-06T06:42:29.678Z,954.0054932
2023-05-06T06:43:31.194Z,954.0151367
2023-05-06T06:44:32.643Z,954.0193481
2023-05-06T06:45:33.706Z,953.99823
2023-05-06T06:46:34.703Z,954.0037231
2023-05-06T06:47:36.466Z,954.0005493
2023-05-06T06:48:37.693Z,954.0334473
2023-05-06T06:49:39.200Z,954.0220337
2023-05-06T06:50:40.666Z,954.0234985
2023-05-06T06:51:42.209Z,954.0531006
2023-05-06T06:52:43.822Z,954.0415039
2023-05-06T06:53:45.320Z,954.0635986
2023-05-06T06:54:46.782Z,954.1063843
2023-05-06T06:55:48.220Z,954.0980225
2023-05-06T06:56:50.223Z,954.1137695
2023-05-06T06:58:22.402Z,954.1209106
2023-05-06T06:59:23.956Z,954.1228027
2023-05-06T07:00:25.461Z,954.0891113
2023-05-06T07:01:26.040Z,954.1112671
2023-05-06T07:02:27.256Z,954.1480713
2023-05-06T07:03:28.686Z,954.1506958
2023-05-06T07:04:29.945Z,954.145874
2023-05-06T07:05:31.156Z,954.1417236
2023-05-06T07:06:32.163Z,954.1209106
2023-05-06T07:07:33.138Z,954.1482544
2023-05-06T07:08:34.158Z,954.1532593
2023-05-06T07:09:35.941Z,954.1350708
2023-05-06T07:10:37.306Z,954.1351318
2023-05-06T07:11:38.680Z,954.1032715
2023-05-06T07:12:39.733Z,954.0925293
2023-05-06T07:13:41.214Z,954.0965576
2023-05-06T07:14:42.629Z,954.0817261
2023-05-06T07:15:43.675Z,954.057373
2023-05-06T07:16:46.422Z,954.0367432
2023-05-06T07:17:45.671Z,954.0332642
2023-05-06T07:18:46.639Z,954.0147095
2023-05-06T07:19:47.641Z,954.0006104
2023-05-06T07:20:48.137Z,954.0317993
2023-05-06T07:21:49.205Z,954.0465088
2023-05-06T07:23:21.468Z,954.086792
2023-05-06T07:24:22.668Z,954.0687256
2023-05-06T07:25:24.413Z,954.0384521
2023-05-06T07:26:24.898Z,954.0253296
2023-05-06T07:27:26.928Z,954.1177979
2023-05-06T07:28:28.409Z,954.1209106
2023-05-06T07:29:28.960Z,954.1417236
2023-05-06T07:30:30.763Z,954.157959
2023-05-06T07:31:32.153Z,954.2319336
2023-05-06T07:32:33.348Z,954.2089844
2023-05-06T07:33:34.639Z,954.1564331
2023-05-06T07:34:35.668Z,954.1581421
2023-05-06T07:35:36.165Z,954.1500244
2023-05-06T07:36:38.672Z,954.1531372
2023-05-06T07:37:38.717Z,954.1727905
2023-05-06T07:38:40.204Z,954.130127
2023-05-06T07:39:41.424Z,954.1539307
2023-05-06T07:40:41.921Z,954.171875
2023-05-06T07:41:43.287Z,954.1824341
2023-05-06T07:42:44.778Z,954.1801758
2023-05-06T07:43:46.204Z,954.2168579
2023-05-06T07:44:47.695Z,954.2333374
2023-05-06T07:45:49.737Z,954.1890869
2023-05-06T07:47:21.475Z,954.1972656
2023-05-06T07:48:22.963Z,954.1677856
2023-05-06T07:49:23.926Z,954.213623
2023-05-06T07:50:24.956Z,954.1687622
2023-05-06T07:51:26.450Z,954.1817017
2023-05-06T07:52:27.932Z,954.2072754
2023-05-06T07:53:28.424Z,954.1679688
2023-05-06T07:54:29.790Z,954.1698608
2023-05-06T07:55:32.686Z,954.1761475
2023-05-06T07:56:32.663Z,954.1409302
2023-05-06T07:57:33.706Z,954.1721802
2023-05-06T07:58:35.179Z,954.1828003
2023-05-06T07:59:36.226Z,954.1622925
2023-05-06T08:00:37.706Z,954.1737671
2023-05-06T08:01:39.184Z,954.1850586
2023-05-06T08:02:40.827Z,954.2286987
2023-05-06T08:03:42.340Z,954.2171631
2023-05-06T08:04:43.279Z,954.2327881
2023-05-06T08:05:44.656Z,954.2385254
2023-05-06T08:06:45.762Z,954.2115479
2023-05-06T08:07:47.190Z,954.2262573
2023-05-06T08:08:48.159Z,954.1729126
2023-05-06T08:10:20.692Z,954.206665
2023-05-06T08:11:21.895Z,954.1638794
2023-05-06T08:12:22.431Z,954.1417236
2023-05-06T08:13:24.092Z,954.1548462
2023-05-06T08:14:24.934Z,954.1489868
2023-05-06T08:15:25.373Z,954.1459351
2023-05-06T08:16:26.509Z,954.1636963
2023-05-06T08:17:27.988Z,954.1556396
2023-05-06T08:18:28.568Z,954.170105
2023-05-06T08:19:29.652Z,954.1602173
2023-05-06T08:20:30.719Z,954.184082
2023-05-06T08:21:32.236Z,954.1905518
2023-05-06T08:22:33.732Z,954.1904907
2023-05-06T08:23:35.246Z,954.2150269
2023-05-06T08:24:36.424Z,954.2051392
2023-05-06T08:25:37.927Z,954.1929932
2023-05-06T08:26:39.175Z,954.2090454
2023-05-06T08:27:40.219Z,954.2115479
2023-05-06T08:28:41.729Z,954.1696167
2023-05-06T08:29:43.190Z,954.1534424
2023-05-06T08:30:44.666Z,954.1712646
2023-05-06T08:31:45.216Z,954.1548462
2023-05-06T08:32:46.322Z,954.1310425
2023-05-06T08:33:47.876Z,954.102478
2023-05-06T08:35:20.460Z,954.1082153
2023-05-06T08:36:20.962Z,954.0931396
2023-05-06T08:37:22.158Z,954.071106
2023-05-06T08:38:23.247Z,954.0335083
2023-05-06T08:39:24.944Z,954.0415649
2023-05-06T08:40:25.980Z,954.0200195
2023-05-06T08:41:27.438Z,954.0227051
2023-05-06T08:42:28.549Z,954.0267334
2023-05-06T08:43:30.070Z,954.008667
2023-05-06T08:44:31.576Z,953.9904175
2023-05-06T08:45:33.132Z,953.9871826
2023-05-06T08:46:34.506Z,954.0214844
2023-05-06T08:47:36.003Z,954.0001831
2023-05-06T08:48:37.493Z,953.9737549
2023-05-06T08:49:38.956Z,953.9656372
2023-05-06T08:50:40.451Z,953.9516602
2023-05-06T08:51:40.923Z,953.8792114
2023-05-06T08:52:41.980Z,953.9089355
2023-05-06T08:53:43.460Z,953.9702148
2023-05-06T08:54:43.951Z,953.9417114
2023-05-06T08:55:45.246Z,953.9578247
2023-05-06T08:56:46.675Z,953.9035645
2023-05-06T08:57:47.915Z,953.9213867
2023-05-06T08:59:19.752Z,953.8982544
2023-05-06T09:00:21.257Z,953.9212646
2023-05-06T09:01:22.465Z,953.8982544
2023-05-06T09:02:23.517Z,953.875061
2023-05-06T09:03:24.580Z,953.878418
2023-05-06T09:04:25.948Z,953.8355713
2023-05-06T09:05:27.523Z,953.8922119
2023-05-06T09:06:27.972Z,953.90448
2023-05-06T09:07:29.171Z,953.8995361
2023-05-06T09:08:30.187Z,953.8278809
2023-05-06T09:09:31.371Z,953.8170166
2023-05-06T09:10:32.735Z,953.7988281
2023-05-06T09:11:33.153Z,953.8234863
2023-05-06T09:12:33.650Z,953.7998657
2023-05-06T09:13:34.698Z,953.7626343
2023-05-06T09:14:35.707Z,953.7804565
2023-05-06T09:15:36.987Z,953.7681274
2023-05-06T09:16:38.559Z,953.7876587
2023-05-06T09:17:39.972Z,953.8079834
2023-05-06T09:18:40.944Z,953.8161011
2023-05-06T09:19:42.502Z,953.7815552
2023-05-06T09:20:43.884Z,953.7648926
2023-05-06T09:21:45.268Z,953.7650146
2023-05-06T09:22:46.669Z,953.7460938
2023-05-06T09:23:47.677Z,953.6884155
2023-05-06T09:25:19.502Z,953.7160645
2023-05-06T09:26:20.997Z,953.6560669
2023-05-06T09:27:22.471Z,953.694397
2023-05-06T09:28:23.946Z,953.6860962
2023-05-06T09:29:24.943Z,953.6652832
2023-05-06T09:30:25.986Z,953.6712646
2023-05-06T09:31:27.491Z,953.6720581
2023-05-06T09:32:29.007Z,953.6900024
2023-05-06T09:33:29.468Z,953.6774292
2023-05-06T09:34:30.722Z,953.6494751
2023-05-06T09:35:31.819Z,953.6984253
2023-05-06T09:36:33.220Z,953.6581421
2023-05-06T09:37:34.727Z,953.6716919
2023-05-06T09:38:36.187Z,953.6698608
2023-05-06T09:39:37.162Z,953.6542358
2023-05-06T09:40:38.699Z,953.6211548
2023-05-06T09:41:39.780Z,953.6780396
2023-05-06T09:42:41.211Z,953.6308594
2023-05-06T09:43:42.747Z,953.5978394
2023-05-06T09:44:44.198Z,953.5879517
2023-05-06T09:45:45.452Z,953.5811157
2023-05-06T09:46:46.130Z,953.6000977
2023-05-06T09:47:47.235Z,953.6224976
2023-05-06T09:49:19.950Z,953.5466919
2023-05-06T09:50:20.945Z,953.5317993
2023-05-06T09:51:22.016Z,953.5356445
2023-05-06T09:52:23.503Z,953.5740356
2023-05-06T09:53:24.987Z,953.5459595
2023-05-06T09:54:26.431Z,953.5483398
2023-05-06T09:55:27.475Z,953.5151367
2023-05-06T09:56:28.815Z,953.4820557
2023-05-06T09:57:30.251Z,953.4834595
2023-05-06T09:58:31.773Z,953.4481201
2023-05-06T09:59:33.290Z,953.4657593
2023-05-06T10:00:34.766Z,953.4556274
2023-05-06T10:01:37.352Z,953.4464111
2023-05-06T10:02:36.650Z,953.3951416
2023-05-06T10:03:38.123Z,953.4590454
2023-05-06T10:04:38.831Z,953.3827515
2023-05-06T10:05:39.766Z,953.3751831
2023-05-06T10:06:40.997Z,953.3135986
2023-05-06T10:07:42.580Z,953.3118896
2023-05-06T10:08:43.190Z,953.3035278
2023-05-06T10:09:44.200Z,953.2796021
2023-05-06T10:10:45.233Z,953.2943115
2023-05-06T10:11:46.958Z,953.2686157
2023-05-06T10:13:19.574Z,953.2603149
2023-05-06T10:14:20.973Z,953.2467041
2023-05-06T10:15:22.640Z,953.2407837
2023-05-06T10:16:23.406Z,953.2703247
2023-05-06T10:17:24.829Z,953.2490845
2023-05-06T10:18:26.321Z,953.3063965
2023-05-06T10:19:26.826Z,953.2874756
2023-05-06T10:20:28.098Z,953.2446899
2023-05-06T10:21:29.234Z,953.2767334
2023-05-06T10:22:30.746Z,953.2658081
2023-05-06T10:23:32.180Z,953.2175293
2023-05-06T10:24:33.456Z,953.2097168
2023-05-06T10:25:33.955Z,953.1932983
2023-05-06T10:26:35.264Z,953.1531372
2023-05-06T10:27:36.754Z,953.182373
2023-05-06T10:28:38.287Z,953.1796875
2023-05-06T10:29:39.764Z,953.1417847
2023-05-06T10:30:41.185Z,953.1570435
2023-05-06T10:31:42.306Z,953.1730957
2023-05-06T10:32:43.937Z,953.1212769
2023-05-06T10:33:45.305Z,953.1710815
2023-05-06T10:34:46.722Z,953.1327515
2023-05-06T10:36:19.485Z,953.1070557
2023-05-06T10:37:20.115Z,953.0921631
2023-05-06T10:38:21.248Z,953.0926514
2023-05-06T10:39:22.787Z,953.055481
2023-05-06T10:40:23.965Z,953.0430298
2023-05-06T10:41:24.972Z,953.0137329
2023-05-06T10:42:25.948Z,953.0376587
2023-05-06T10:43:27.499Z,953.0159302
2023-05-06T10:44:28.836Z,952.9598389
2023-05-06T10:45:30.341Z,953.0402832
2023-05-06T10:46:31.664Z,952.9876709
2023-05-06T10:47:32.695Z,953.0029907
2023-05-06T10:48:33.789Z,952.9698486
2023-05-06T10:49:34.980Z,952.9326782
2023-05-06T10:50:36.446Z,952.9779663
2023-05-06T10:51:36.939Z,952.9712524
2023-05-06T10:52:38.292Z,952.947998
2023-05-06T10:53:39.778Z,952.9265747
2023-05-06T10:54:41.328Z,952.9198608
2023-05-06T10:55:41.748Z,952.9377441
2023-05-06T10:56:42.241Z,952.8865356
2023-05-06T10:57:43.800Z,952.8700562
2023-05-06T10:58:45.114Z,952.8861084
2023-05-06T10:59:46.628Z,952.9050293
2023-05-06T11:01:18.260Z,952.8693848
2023-05-06T11:02:20.767Z,952.8755493
2023-05-06T11:03:21.706Z,952.8800659
2023-05-06T11:04:22.969Z,952.8616943
2023-05-06T11:05:24.461Z,952.8474731
2023-05-06T11:06:25.961Z,952.8572388
2023-05-06T11:07:27.564Z,952.8300171
2023-05-06T11:08:28.701Z,952.8428955
2023-05-06T11:09:29.739Z,952.7984619
2023-05-06T11:10:31.235Z,952.8005371
2023-05-06T11:11:32.724Z,952.802002
2023-05-06T11:12:34.316Z,952.7667236
2023-05-06T11:13:35.719Z,952.7647705
2023-05-06T11:14:37.286Z,952.7704468
2023-05-06T11:15:38.541Z,952.763916
2023-05-06T11:16:39.221Z,952.7614136
2023-05-06T11:17:40.224Z,952.7111206